createdAt,value
2024-05-09T00:02:11.164Z,3.90
2024-05-09T00:05:01.582Z,3.22
2024-05-09T00:07:51.864Z,3.78
2024-05-09T00:10:42.214Z,5.38
2024-05-09T00:13:32.536Z,5.07
2024-05-09T00:16:22.747Z,3.70
2024-05-09T00:19:15.746Z,3.25
2024-05-09T00:22:06.234Z,4.10
2024-05-09T00:24:56.416Z,4.53
2024-05-09T00:27:46.655Z,8.85
2024-05-09T00:30:37.633Z,6.70
2024-05-09T00:33:28.442Z,5.38
2024-05-09T00:36:21.677Z,3.90
2024-05-09T00:39:11.822Z,3.70
2024-05-09T00:42:02.118Z,6.95
2024-05-09T00:44:52.259Z,4.47
2024-05-09T00:47:43.788Z,4.00
2024-05-09T00:50:36.863Z,4.32
2024-05-09T00:53:31.449Z,4.85
2024-05-09T00:56:24.069Z,5.88
2024-05-09T00:59:14.563Z,4.05
2024-05-09T01:02:07.830Z,4.25
2024-05-09T01:04:58.370Z,4.25
2024-05-09T01:07:48.765Z,5.80
2024-05-09T01:10:44.190Z,4.22
2024-05-09T01:13:36.324Z,5.10
2024-05-09T01:16:26.682Z,5.90
2024-05-09T01:19:22.875Z,4.72
2024-05-09T01:22:13.362Z,4.75
2024-05-09T01:25:06.360Z,4.97
2024-05-09T01:27:56.533Z,6.30
2024-05-09T01:30:46.847Z,6.78
2024-05-09T01:33:37.577Z,5.20
2024-05-09T01:36:28.036Z,5.55
2024-05-09T01:39:18.211Z,4.85
2024-05-09T01:42:11.261Z,5.75
2024-05-09T01:45:01.476Z,5.80
2024-05-09T01:47:51.777Z,4.93
2024-05-09T01:50:43.265Z,4.60
2024-05-09T01:53:34.190Z,5.22
2024-05-09T01:56:24.631Z,5.10
2024-05-09T01:59:17.726Z,3.50
2024-05-09T02:02:08.250Z,4.93
2024-05-09T02:04:58.661Z,6.22
2024-05-09T02:07:48.879Z,4.90
2024-05-09T02:10:39.081Z,8.52
2024-05-09T02:13:29.365Z,6.32
2024-05-09T02:16:22.188Z,7.78
2024-05-09T02:19:12.651Z,6.55
2024-05-09T02:22:03.117Z,6.93
2024-05-09T02:24:53.354Z,8.32
2024-05-09T02:27:44.548Z,8.73
2024-05-09T02:30:39.666Z,6.60
2024-05-09T02:33:34.625Z,6.75
2024-05-09T02:36:25.316Z,9.07
2024-05-09T02:39:12.874Z,10.43
2024-05-09T02:42:03.115Z,12.57
2024-05-09T02:44:50.755Z,14.73
2024-05-09T02:47:41.093Z,10.55
2024-05-09T02:50:37.849Z,11.15
2024-05-09T02:53:29.961Z,11.63
2024-05-09T02:56:17.616Z,12.52
2024-05-09T02:59:07.938Z,13.48
2024-05-09T03:01:55.646Z,16.27
2024-05-09T03:04:46.019Z,13.55
2024-05-09T03:07:36.298Z,16.80
2024-05-09T03:10:29.025Z,15.93
2024-05-09T03:13:24.782Z,14.30
2024-05-09T03:16:12.414Z,17.20
2024-05-09T03:19:02.698Z,15.70
2024-05-09T03:21:50.405Z,12.75
2024-05-09T03:24:43.214Z,15.15
2024-05-09T03:27:30.799Z,20.35
2024-05-09T03:30:30.915Z,15.48
2024-05-09T03:33:27.349Z,18.58
2024-05-09T03:36:17.647Z,17.52
2024-05-09T03:39:07.874Z,16.77
2024-05-09T03:42:00.702Z,19.40
2024-05-09T03:44:52.607Z,18.88
2024-05-09T03:47:40.331Z,16.75
2024-05-09T03:50:35.413Z,17.90
2024-05-09T03:53:25.482Z,18.13
2024-05-09T03:56:15.958Z,15.70
2024-05-09T03:59:06.337Z,17.52
2024-05-09T04:01:56.699Z,16.58
2024-05-09T04:04:45.187Z,16.88
2024-05-09T04:07:36.014Z,16.77
2024-05-09T04:10:27.972Z,16.23
2024-05-09T04:13:23.144Z,13.07
2024-05-09T04:16:13.381Z,15.63
2024-05-09T04:19:03.708Z,17.63
2024-05-09T04:21:51.330Z,14.98
2024-05-09T04:24:41.617Z,16.77
2024-05-09T04:27:29.267Z,15.38
2024-05-09T04:30:26.461Z,17.98
2024-05-09T04:33:25.346Z,15.27
2024-05-09T04:36:15.768Z,17.67
2024-05-09T04:39:03.472Z,15.90
2024-05-09T04:41:53.755Z,15.52
2024-05-09T04:44:41.342Z,17.10
2024-05-09T04:47:31.693Z,15.20
2024-05-09T04:50:30.119Z,15.52
2024-05-09T04:53:26.635Z,16.23
2024-05-09T04:56:14.381Z,15.77
2024-05-09T04:59:04.748Z,12.70
2024-05-09T05:01:52.418Z,15.23
2024-05-09T05:04:42.941Z,15.25
2024-05-09T05:07:33.170Z,13.60
2024-05-09T05:10:29.596Z,14.55
2024-05-09T05:13:24.169Z,16.00
2024-05-09T05:16:15.014Z,16.85
2024-05-09T05:19:02.797Z,15.82
2024-05-09T05:21:53.035Z,16.52
2024-05-09T05:24:43.733Z,17.42
2024-05-09T05:27:33.935Z,17.20
2024-05-09T05:30:28.719Z,18.50
2024-05-09T05:33:23.760Z,16.40
2024-05-09T05:36:11.472Z,15.65
2024-05-09T05:39:01.625Z,15.18
2024-05-09T05:41:51.885Z,17.50
2024-05-09T05:44:42.126Z,14.38
2024-05-09T05:47:29.876Z,20.40
2024-05-09T05:50:27.516Z,16.10
2024-05-09T05:53:23.386Z,15.88
2024-05-09T05:56:10.991Z,18.10
2024-05-09T05:59:03.976Z,18.13
2024-05-09T06:01:51.709Z,17.52
2024-05-09T06:04:42.162Z,15.95
2024-05-09T06:07:32.492Z,18.15
2024-05-09T06:10:25.472Z,23.05
2024-05-09T06:13:20.562Z,19.73
2024-05-09T06:16:10.773Z,17.75
2024-05-09T06:19:01.115Z,20.30
2024-05-09T06:21:48.839Z,17.05
2024-05-09T06:24:39.114Z,20.75
2024-05-09T06:27:26.657Z,19.90
2024-05-09T06:30:25.819Z,17.08
2024-05-09T06:33:21.395Z,15.13
2024-05-09T06:36:11.983Z,15.32
2024-05-09T06:38:59.617Z,16.08
2024-05-09T06:41:49.811Z,16.98
2024-05-09T06:44:37.542Z,14.15
2024-05-09T06:47:27.979Z,17.67
2024-05-09T06:50:23.888Z,23.58
2024-05-09T06:53:19.144Z,14.23
2024-05-09T06:56:07.616Z,15.80
2024-05-09T06:58:57.954Z,18.40
2024-05-09T07:01:45.663Z,14.10
2024-05-09T07:04:36.136Z,12.50
2024-05-09T07:07:26.554Z,12.05
2024-05-09T07:10:22.155Z,12.55
2024-05-09T07:13:16.534Z,11.77
2024-05-09T07:16:07.094Z,10.68
2024-05-09T07:18:55.288Z,10.52
2024-05-09T07:21:45.627Z,12.45
2024-05-09T07:24:37.143Z,12.25
2024-05-09T07:27:28.015Z,12.25
2024-05-09T07:30:22.955Z,15.32
2024-05-09T07:33:22.782Z,10.52
2024-05-09T07:36:11.773Z,9.90
2024-05-09T07:39:02.106Z,9.45
2024-05-09T07:41:52.374Z,11.15
2024-05-09T07:44:42.633Z,9.88
2024-05-09T07:48:57.047Z,9.80
2024-05-09T07:53:42.338Z,9.05
2024-05-09T07:56:33.739Z,12.30
2024-05-09T07:59:26.742Z,9.30
2024-05-09T08:02:14.573Z,6.10
2024-05-09T08:05:05.102Z,5.32
2024-05-09T08:07:52.782Z,5.30
2024-05-09T08:10:43.152Z,5.05
2024-05-09T08:13:33.509Z,4.22
2024-05-09T08:16:23.977Z,3.90
2024-05-09T08:19:14.468Z,5.00
2024-05-09T08:22:07.157Z,5.90
2024-05-09T08:24:54.945Z,4.45
2024-05-09T08:27:45.205Z,7.13
2024-05-09T08:30:36.669Z,4.47
2024-05-09T08:33:31.243Z,5.00
2024-05-09T08:36:19.023Z,4.53
2024-05-09T08:39:09.326Z,5.25
2024-05-09T08:41:56.973Z,8.45
2024-05-09T08:44:48.290Z,4.93
2024-05-09T08:47:36.155Z,4.60
2024-05-09T08:50:36.234Z,4.63
2024-05-09T08:53:27.035Z,4.30
2024-05-09T08:56:19.095Z,6.47
2024-05-09T08:59:13.593Z,5.70
2024-05-09T09:02:02.577Z,4.38
2024-05-09T09:04:59.105Z,7.22
2024-05-09T09:07:51.500Z,11.48
2024-05-09T09:10:45.510Z,4.82
2024-05-09T09:13:35.828Z,4.47
2024-05-09T09:16:33.059Z,5.18
2024-05-09T09:19:26.030Z,3.97
2024-05-09T09:22:15.225Z,5.50
2024-05-09T09:25:08.578Z,7.68
2024-05-09T09:27:57.874Z,5.70
2024-05-09T09:30:48.942Z,6.05
2024-05-09T09:33:42.316Z,3.38
2024-05-09T09:36:33.927Z,5.20
2024-05-09T09:39:23.927Z,3.53
2024-05-09T09:42:19.463Z,3.30
2024-05-09T09:45:07.856Z,3.55
2024-05-09T09:47:59.307Z,6.32
2024-05-09T09:50:48.276Z,4.82
2024-05-09T09:53:40.127Z,5.40
2024-05-09T09:56:30.308Z,5.50
2024-05-09T09:59:24.847Z,3.30
2024-05-09T10:02:13.978Z,6.43
2024-05-09T10:05:04.730Z,6.38
2024-05-09T10:07:53.450Z,5.65
2024-05-09T10:10:48.978Z,5.78
2024-05-09T10:13:37.056Z,7.60
2024-05-09T10:16:33.904Z,3.67
2024-05-09T10:19:28.611Z,5.70
2024-05-09T10:22:30.903Z,5.07
2024-05-09T10:25:19.469Z,4.65
2024-05-09T10:28:14.621Z,4.72
2024-05-09T10:31:09.152Z,4.60
2024-05-09T10:34:05.446Z,2.83
2024-05-09T10:36:54.520Z,3.33
2024-05-09T10:39:45.514Z,3.58
2024-05-09T10:42:33.576Z,4.55
2024-05-09T10:45:24.821Z,3.17
2024-05-09T10:48:12.953Z,2.80
2024-05-09T10:51:06.728Z,3.28
2024-05-09T10:53:56.759Z,1.63
2024-05-09T10:56:47.376Z,3.20
2024-05-09T10:59:35.948Z,2.25
2024-05-09T11:02:26.624Z,2.28
2024-05-09T11:05:14.684Z,2.78
2024-05-09T11:08:08.394Z,1.98
2024-05-09T11:10:57.188Z,1.67
2024-05-09T11:13:47.844Z,2.80
2024-05-09T14:20:45.050Z,1.52
2024-05-09T14:23:33.057Z,0.98
2024-05-09T14:26:24.892Z,0.85
2024-05-09T14:29:12.826Z,1.55
2024-05-09T14:32:03.345Z,0.77
2024-05-09T14:34:51.425Z,1.77
2024-05-09T14:37:44.672Z,1.92
2024-05-09T14:43:27.388Z,1.00
2024-05-09T14:46:15.491Z,1.27
2024-05-09T14:49:08.058Z,1.13
2024-05-09T14:51:57.207Z,1.35
2024-05-09T14:54:59.899Z,1.70
2024-05-09T14:57:48.931Z,0.90
2024-05-09T15:00:44.751Z,1.27
2024-05-09T15:03:39.324Z,1.83
2024-05-09T15:06:30.110Z,4.15
2024-05-09T15:09:17.993Z,1.23
2024-05-09T15:12:11.524Z,1.17
2024-05-09T15:14:59.452Z,0.98
2024-05-09T15:17:50.088Z,1.48
2024-05-09T15:20:39.045Z,1.38
2024-05-09T15:23:29.812Z,1.23
2024-05-09T15:26:17.882Z,2.50
2024-05-09T15:29:11.035Z,2.78
2024-05-09T15:31:59.061Z,1.05
2024-05-09T15:34:49.643Z,1.70
2024-05-09T15:37:37.702Z,1.30
2024-05-09T15:40:36.201Z,1.33
2024-05-09T15:43:28.321Z,1.27
2024-05-09T15:46:21.800Z,2.80
2024-05-09T15:49:09.987Z,1.85
2024-05-09T15:52:00.755Z,1.13
2024-05-09T15:54:33.479Z,2.45
2024-05-09T15:57:24.136Z,1.30
2024-05-09T16:00:21.836Z,1.85
2024-05-09T16:03:22.593Z,1.50
2024-05-09T16:06:11.530Z,1.27
2024-05-09T16:09:02.119Z,1.27
2024-05-09T16:11:50.108Z,1.40
2024-05-09T16:14:40.669Z,0.88
2024-05-09T16:17:28.737Z,0.93
2024-05-09T16:20:33.702Z,0.90
2024-05-09T16:23:29.864Z,1.38
2024-05-09T16:26:17.785Z,1.30
2024-05-09T16:29:08.571Z,1.60
2024-05-09T16:31:57.090Z,1.27
2024-05-09T16:34:47.685Z,1.65
2024-05-09T16:37:38.395Z,1.50
2024-05-09T16:40:36.464Z,1.20
2024-05-09T16:43:27.876Z,1.30
2024-05-09T16:46:18.609Z,1.33
2024-05-09T16:49:06.736Z,1.60
2024-05-09T16:51:57.370Z,3.67
2024-05-09T16:54:48.009Z,1.80
2024-05-09T16:57:38.705Z,2.15
2024-05-09T17:00:36.491Z,1.70
2024-05-09T17:03:32.400Z,1.25
2024-05-09T17:06:20.468Z,0.98
2024-05-09T17:09:12.070Z,1.23
2024-05-09T17:12:09.185Z,1.40
2024-05-09T17:14:59.747Z,1.10
2024-05-09T17:17:50.408Z,0.70
2024-05-09T17:20:41.153Z,0.90
2024-05-09T17:23:29.758Z,3.17
2024-05-09T17:26:21.711Z,1.73
2024-05-09T17:29:12.990Z,1.15
2024-05-09T17:32:03.544Z,1.23
2024-05-09T17:34:51.503Z,1.20
2024-05-09T17:37:42.086Z,0.90
2024-05-09T17:40:33.900Z,1.48
2024-05-09T17:43:27.189Z,2.25
2024-05-09T17:46:20.435Z,2.28
2024-05-09T17:49:08.526Z,1.63
2024-05-09T17:51:59.468Z,2.13
2024-05-09T17:54:47.520Z,1.33
2024-05-09T17:57:38.179Z,1.05
2024-05-09T18:03:23.421Z,0.90
2024-05-09T18:06:11.635Z,1.33
2024-05-09T18:09:02.095Z,0.73
2024-05-09T18:11:50.077Z,1.75
2024-05-09T18:14:40.610Z,1.60
2024-05-09T18:17:28.854Z,1.73
2024-05-09T18:20:32.586Z,2.38
2024-05-09T18:23:28.709Z,1.85
2024-05-09T18:26:19.213Z,2.30
2024-05-09T18:29:07.555Z,3.55
2024-05-09T18:31:58.323Z,3.67
2024-05-09T18:34:46.361Z,2.50
2024-05-09T18:37:39.716Z,3.90
2024-05-09T18:40:33.702Z,3.40
2024-05-09T18:43:31.672Z,3.40
2024-05-09T18:46:26.576Z,3.63
2024-05-09T18:49:17.593Z,3.05
2024-05-09T18:52:06.001Z,2.70
2024-05-09T18:54:59.455Z,2.42
2024-05-09T18:57:50.147Z,2.65
2024-05-09T19:00:41.120Z,1.85
2024-05-09T19:03:33.842Z,2.33
2024-05-09T19:06:24.621Z,1.65
2024-05-09T19:09:15.490Z,2.63
2024-05-09T19:12:06.662Z,2.05
2024-05-09T19:14:57.214Z,1.65
2024-05-09T19:17:45.223Z,2.22
2024-05-09T19:20:37.056Z,2.80
2024-05-09T19:23:25.606Z,2.15
2024-05-09T19:26:16.162Z,1.98
2024-05-09T19:29:09.369Z,1.23
2024-05-09T19:31:57.321Z,1.67
2024-05-09T19:34:47.927Z,2.85
2024-05-09T19:37:35.972Z,1.95
2024-05-09T19:40:31.394Z,1.77
2024-05-09T19:43:24.237Z,1.60
2024-05-09T19:46:15.071Z,1.20
2024-05-09T19:49:06.661Z,1.27
2024-05-09T19:51:54.809Z,1.67
2024-05-09T19:54:49.641Z,2.00
2024-05-09T19:57:37.701Z,4.13
2024-05-09T20:00:34.733Z,1.25
2024-05-09T20:03:26.758Z,1.80
2024-05-09T20:06:17.535Z,2.72
2024-05-09T20:09:05.948Z,1.48
2024-05-09T20:11:56.466Z,1.70
2024-05-09T20:14:47.121Z,1.63
2024-05-09T20:17:35.099Z,3.10
2024-05-09T20:20:36.261Z,1.35
2024-05-09T20:23:29.288Z,1.98
2024-05-09T20:26:19.860Z,1.77
2024-05-09T20:29:07.758Z,3.08
2024-05-09T20:31:58.357Z,1.30
2024-05-09T20:34:50.456Z,2.15
2024-05-09T20:37:43.564Z,4.18
2024-05-09T20:40:35.178Z,9.27
2024-05-09T20:43:28.601Z,3.03
2024-05-09T20:46:16.602Z,2.22
2024-05-09T20:49:07.424Z,4.85
2024-05-09T20:51:55.393Z,4.18
2024-05-09T20:54:48.652Z,2.90
2024-05-09T20:57:36.554Z,3.80
2024-05-09T21:00:35.206Z,3.53
2024-05-09T21:03:28.029Z,4.55
2024-05-09T21:06:18.774Z,5.10
2024-05-09T21:09:06.721Z,5.13
2024-05-09T21:11:59.940Z,4.18
2024-05-09T21:14:47.810Z,4.47
2024-05-09T21:17:38.656Z,2.78
2024-05-09T21:23:20.162Z,2.90
2024-05-09T21:26:08.108Z,3.10
2024-05-09T21:29:01.390Z,3.90
2024-05-09T21:31:49.270Z,4.53
2024-05-09T21:34:40.052Z,3.50
2024-05-09T21:37:28.007Z,3.00
2024-05-09T21:40:27.015Z,3.90
2024-05-09T21:43:21.888Z,2.35
2024-05-09T21:46:15.477Z,2.70
2024-05-09T21:49:04.046Z,2.67
2024-05-09T21:51:54.871Z,5.80
2024-05-09T21:54:42.876Z,3.47
2024-05-09T21:57:33.620Z,3.17
2024-05-09T22:00:28.999Z,3.67
2024-05-09T22:03:28.777Z,3.47
2024-05-09T22:06:16.778Z,3.00
2024-05-09T22:09:07.322Z,5.13
2024-05-09T22:11:56.582Z,4.30
2024-05-09T22:14:48.175Z,4.13
2024-05-09T22:17:36.338Z,3.35
2024-05-09T22:20:36.537Z,5.22
2024-05-09T22:23:26.925Z,5.38
2024-05-09T22:26:17.665Z,5.57
2024-05-09T22:29:06.264Z,3.60
2024-05-09T22:31:56.812Z,4.95
2024-05-09T22:34:44.851Z,4.40
2024-05-09T22:37:38.007Z,8.85
2024-05-09T22:40:38.017Z,4.60
2024-05-09T22:43:36.579Z,3.80
2024-05-09T22:46:24.628Z,4.32
2024-05-09T22:49:15.395Z,3.63
2024-05-09T22:52:03.723Z,3.20
2024-05-09T22:54:56.975Z,6.30
2024-05-09T22:57:45.149Z,4.53
2024-05-09T23:00:35.912Z,4.43
2024-05-09T23:03:23.635Z,5.25
2024-05-09T23:06:14.027Z,4.28
2024-05-09T23:09:01.658Z,6.18
2024-05-09T23:11:55.114Z,3.83
2024-05-09T23:14:42.693Z,4.18
2024-05-09T23:17:33.079Z,4.07
2024-05-09T23:20:30.015Z,5.75
2024-05-09T23:23:27.141Z,4.70
2024-05-09T23:26:17.465Z,3.28
2024-05-09T23:29:07.703Z,4.47
2024-05-09T23:31:57.841Z,4.60
2024-05-09T23:34:45.628Z,3.83
2024-05-09T23:37:35.850Z,3.65
2024-05-09T23:40:26.691Z,6.00
2024-05-09T23:43:20.446Z,3.65
2024-05-09T23:46:11.042Z,3.10
2024-05-09T23:49:01.446Z,3.17
2024-05-09T23:51:49.235Z,2.70
2024-05-09T23:54:39.673Z,4.75
2024-05-09T23:57:27.316Z,3.50
